createdAt,value
2023-03-16T00:02:12.619Z,9.13
2023-03-16T00:04:40.226Z,9.43
2023-03-16T00:07:09.219Z,10.10
2023-03-16T00:09:40.927Z,9.10
2023-03-16T00:12:15.786Z,9.67
2023-03-16T00:14:48.970Z,9.40
2023-03-16T00:17:21.245Z,9.80
2023-03-16T00:19:55.209Z,9.10
2023-03-16T00:22:25.036Z,9.10
2023-03-16T00:24:52.952Z,9.43
2023-03-16T00:27:23.135Z,9.30
2023-03-16T00:29:56.060Z,9.23
2023-03-16T00:32:29.392Z,9.73
2023-03-16T00:34:57.015Z,9.70
2023-03-16T00:37:26.210Z,10.20
2023-03-16T00:39:58.017Z,9.47
2023-03-16T00:42:28.440Z,10.07
2023-03-16T00:44:57.795Z,10.23
2023-03-16T00:50:00.286Z,9.47
2023-03-16T00:52:30.433Z,9.77
2023-03-16T00:54:57.707Z,9.77
2023-03-16T00:57:26.098Z,10.13
2023-03-16T00:59:53.595Z,9.77
2023-03-16T01:02:23.653Z,10.17
2023-03-16T01:04:52.586Z,10.13
2023-03-16T01:07:20.776Z,8.48
2023-03-16T01:09:48.602Z,10.32
2023-03-16T01:12:19.238Z,10.27
2023-03-16T01:14:46.530Z,10.57
2023-03-16T01:17:15.177Z,10.27
2023-03-16T01:19:43.292Z,10.18
2023-03-16T01:22:11.757Z,10.77
2023-03-16T01:24:40.023Z,12.20
2023-03-16T01:27:07.904Z,10.80
2023-03-16T01:29:35.286Z,10.97
2023-03-16T01:32:02.689Z,10.43
2023-03-16T01:34:32.091Z,11.20
2023-03-16T01:39:26.446Z,9.90
2023-03-16T01:41:53.541Z,10.67
2023-03-16T01:44:30.673Z,11.07
2023-03-16T01:46:58.307Z,10.93
2023-03-16T01:49:25.380Z,12.03
2023-03-16T01:52:02.728Z,11.60
2023-03-16T01:54:42.861Z,12.00
2023-03-16T01:57:17.115Z,11.03
2023-03-16T01:59:44.288Z,12.27
2023-03-16T02:02:14.665Z,12.20
2023-03-16T02:04:44.699Z,11.83
2023-03-16T02:07:13.264Z,11.87
2023-03-16T02:09:44.223Z,12.63
2023-03-16T02:12:18.014Z,13.27
2023-03-16T02:14:50.351Z,12.17
2023-03-16T02:17:21.210Z,11.70
2023-03-16T02:20:00.373Z,11.97
2023-03-16T02:22:28.025Z,12.80
2023-03-16T02:24:55.570Z,12.50
2023-03-16T02:27:47.898Z,13.27
2023-03-16T02:30:17.586Z,13.43
2023-03-16T02:32:47.459Z,11.60
2023-03-16T02:35:14.946Z,12.13
2023-03-16T02:37:42.000Z,12.87
2023-03-16T02:40:23.172Z,13.07
2023-03-16T02:43:02.805Z,13.07
2023-03-16T02:45:45.637Z,12.23
2023-03-16T02:48:39.556Z,12.57
2023-03-16T02:51:07.251Z,13.43
2023-03-16T02:53:34.401Z,13.67
2023-03-16T02:56:02.980Z,12.10
2023-03-16T02:58:30.647Z,13.75
2023-03-16T03:00:57.981Z,12.97
2023-03-16T03:03:25.070Z,12.97
2023-03-16T03:05:52.546Z,13.67
2023-03-16T03:08:22.961Z,13.27
2023-03-16T03:10:50.246Z,13.20
2023-03-16T03:13:17.659Z,13.83
2023-03-16T03:15:45.544Z,13.30
2023-03-16T03:18:12.544Z,13.30
2023-03-16T03:20:39.672Z,13.37
2023-03-16T03:23:06.618Z,13.33
2023-03-16T03:25:36.739Z,13.83
2023-03-16T03:28:05.763Z,14.47
2023-03-16T03:30:33.209Z,14.53
2023-03-16T03:33:00.218Z,12.90
2023-03-16T03:35:27.934Z,13.73
2023-03-16T03:37:54.831Z,14.20
2023-03-16T03:40:22.030Z,13.57
2023-03-16T03:42:49.026Z,14.43
2023-03-16T03:45:16.570Z,15.83
2023-03-16T03:47:44.099Z,14.33
2023-03-16T03:50:13.950Z,14.33
2023-03-16T03:52:41.309Z,15.00
2023-03-16T03:55:09.156Z,14.97
2023-03-16T03:57:36.339Z,14.00
2023-03-16T04:00:09.608Z,14.83
2023-03-16T04:02:36.687Z,15.00
2023-03-16T04:05:05.116Z,14.93
2023-03-16T04:07:32.111Z,14.70
2023-03-16T04:09:59.268Z,14.80
2023-03-16T04:12:26.201Z,12.87
2023-03-16T04:14:53.472Z,15.30
2023-03-16T04:17:20.470Z,13.50
2023-03-16T04:19:48.143Z,14.07
2023-03-16T04:22:15.084Z,14.93
2023-03-16T04:24:43.338Z,14.73
2023-03-16T04:27:12.216Z,14.80
2023-03-16T04:29:39.447Z,14.50
2023-03-16T04:32:07.651Z,13.30
2023-03-16T04:34:34.899Z,14.13
2023-03-16T04:37:02.539Z,14.77
2023-03-16T04:39:29.739Z,14.47
2023-03-16T04:41:56.572Z,14.30
2023-03-16T04:44:25.919Z,15.93
2023-03-16T04:46:52.911Z,14.33
2023-03-16T04:49:20.212Z,14.63
2023-03-16T04:51:47.114Z,14.60
2023-03-16T04:54:14.411Z,14.43
2023-03-16T04:56:41.774Z,15.67
2023-03-16T04:59:09.014Z,15.33
2023-03-16T05:01:35.860Z,16.23
2023-03-16T05:04:03.122Z,13.77
2023-03-16T05:06:30.083Z,16.50
2023-03-16T05:09:00.074Z,17.17
2023-03-16T05:11:27.441Z,15.20
2023-03-16T05:13:54.678Z,15.23
2023-03-16T05:16:21.584Z,14.60
2023-03-16T05:18:48.810Z,15.57
2023-03-16T05:21:16.688Z,13.67
2023-03-16T05:23:43.930Z,15.35
2023-03-16T05:26:11.323Z,16.27
2023-03-16T05:28:38.480Z,15.73
2023-03-16T05:31:05.821Z,16.07
2023-03-16T05:33:33.105Z,21.43
2023-03-16T05:36:00.039Z,71.43
2023-03-16T05:38:27.697Z,45.10
2023-03-16T05:40:54.795Z,119.73
2023-03-16T05:43:22.339Z,47.40
2023-03-16T05:45:50.251Z,23.93
2023-03-16T05:48:17.555Z,18.52
2023-03-16T05:50:44.531Z,19.87
2023-03-16T05:53:11.781Z,20.63
2023-03-16T05:55:38.647Z,19.00
2023-03-16T05:58:06.084Z,18.90
2023-03-16T06:00:33.626Z,39.47
2023-03-16T06:03:01.717Z,39.77
2023-03-16T06:05:29.642Z,37.70
2023-03-16T06:07:56.875Z,17.90
2023-03-16T06:10:26.743Z,26.53
2023-03-16T06:15:21.010Z,18.90
2023-03-16T06:17:48.933Z,25.17
2023-03-16T06:20:17.715Z,17.93
2023-03-16T06:22:45.336Z,50.03
2023-03-16T06:25:13.663Z,13.70
2023-03-16T06:27:41.040Z,27.38
2023-03-16T06:30:09.600Z,29.87
2023-03-16T06:32:38.102Z,19.20
2023-03-16T06:35:06.143Z,14.83
2023-03-16T06:37:33.622Z,15.73
2023-03-16T06:40:00.534Z,13.23
2023-03-16T06:42:27.812Z,13.60
2023-03-16T06:44:54.882Z,12.87
2023-03-16T06:47:22.012Z,12.60
2023-03-16T06:49:51.040Z,11.53
2023-03-16T06:52:18.228Z,11.07
2023-03-16T06:54:45.053Z,12.30
2023-03-16T06:57:12.407Z,12.23
2023-03-16T06:59:39.334Z,11.57
2023-03-16T07:02:07.172Z,12.00
2023-03-16T07:04:34.275Z,11.70
2023-03-16T07:07:20.235Z,11.18
2023-03-16T07:09:47.620Z,12.20
2023-03-16T07:12:14.765Z,11.52
2023-03-16T07:14:42.228Z,12.00
2023-03-16T07:17:09.365Z,10.73
2023-03-16T07:19:36.755Z,11.68
2023-03-16T07:22:03.736Z,12.25
2023-03-16T07:24:32.820Z,11.83
2023-03-16T07:26:59.858Z,12.73
2023-03-16T07:29:27.061Z,12.87
2023-03-16T07:31:54.814Z,12.37
2023-03-16T07:34:22.181Z,12.00
2023-03-16T07:36:49.710Z,12.83
2023-03-16T07:39:17.893Z,12.07
2023-03-16T07:41:44.786Z,11.63
2023-03-16T07:44:12.117Z,10.77
2023-03-16T07:46:39.062Z,11.43
2023-03-16T07:49:06.300Z,11.13
2023-03-16T07:51:33.192Z,11.15
2023-03-16T07:54:00.501Z,9.88
2023-03-16T07:56:31.638Z,12.10
2023-03-16T07:59:06.547Z,11.13
2023-03-16T08:01:34.483Z,11.15
2023-03-16T08:04:02.036Z,10.35
2023-03-16T08:06:29.122Z,12.07
2023-03-16T08:08:56.737Z,10.38
2023-03-16T08:11:24.007Z,11.10
2023-03-16T08:13:54.546Z,10.32
2023-03-16T08:16:24.981Z,14.48
2023-03-16T08:18:52.554Z,13.50
2023-03-16T08:21:20.199Z,10.20
2023-03-16T08:23:50.631Z,11.13
2023-03-16T08:26:19.591Z,10.07
2023-03-16T08:31:15.507Z,10.75
2023-03-16T08:33:43.821Z,10.73
2023-03-16T08:36:13.563Z,11.27
2023-03-16T08:38:41.949Z,10.48
2023-03-16T08:41:09.737Z,10.77
2023-03-16T08:43:37.573Z,10.75
2023-03-16T08:46:05.546Z,11.68
2023-03-16T08:48:36.436Z,10.83
2023-03-16T08:51:04.248Z,10.43
2023-03-16T08:53:32.012Z,10.32
2023-03-16T08:56:06.929Z,8.80
2023-03-16T08:58:35.348Z,8.10
2023-03-16T09:01:05.768Z,8.05
2023-03-16T09:03:33.640Z,7.55
2023-03-16T09:06:02.693Z,8.98
2023-03-16T09:08:30.618Z,10.95
2023-03-16T09:11:14.954Z,7.63
2023-03-16T09:13:43.171Z,9.00
2023-03-16T09:16:13.132Z,8.68
2023-03-16T09:18:40.655Z,7.50
2023-03-16T09:21:10.466Z,7.53
2023-03-16T09:23:37.809Z,7.50
2023-03-16T09:26:07.692Z,7.10
2023-03-16T09:28:38.732Z,8.32
2023-03-16T09:31:07.180Z,6.82
2023-03-16T09:33:35.742Z,6.45
2023-03-16T09:36:03.240Z,6.88
2023-03-16T09:38:31.732Z,8.15
2023-03-16T09:41:17.201Z,8.50
2023-03-16T09:44:20.978Z,8.27
2023-03-16T09:46:50.871Z,6.72
2023-03-16T09:49:23.669Z,7.20
2023-03-16T09:52:26.564Z,7.38
2023-03-16T09:55:28.832Z,6.35
2023-03-16T09:57:58.728Z,5.65
2023-03-16T10:00:37.705Z,4.72
2023-03-16T10:03:17.816Z,4.20
2023-03-16T10:05:47.444Z,4.45
2023-03-16T10:08:20.128Z,4.75
2023-03-16T10:10:55.238Z,4.93
2023-03-16T10:13:22.109Z,4.95
2023-03-16T10:15:50.969Z,3.92
2023-03-16T10:18:33.138Z,4.40
2023-03-16T10:21:03.058Z,4.10
2023-03-16T10:23:35.365Z,4.20
2023-03-16T10:26:13.125Z,6.30
2023-03-16T10:28:40.088Z,4.82
2023-03-16T10:31:08.165Z,4.45
2023-03-16T10:33:36.784Z,2.95
2023-03-16T10:36:19.514Z,3.88
2023-03-16T10:38:51.440Z,4.45
2023-03-16T10:41:19.163Z,4.57
2023-03-16T10:43:49.599Z,4.00
2023-03-16T10:46:17.993Z,4.57
2023-03-16T10:49:00.405Z,3.90
2023-03-16T10:51:31.407Z,4.75
2023-03-16T10:54:10.323Z,4.50
2023-03-16T10:56:38.453Z,4.30
2023-03-16T10:59:27.874Z,4.60
2023-03-16T11:01:56.421Z,3.47
2023-03-16T11:04:24.410Z,4.03
2023-03-16T11:06:55.250Z,4.53
2023-03-16T11:09:37.230Z,4.32
2023-03-16T11:12:15.721Z,5.30
2023-03-16T11:14:46.717Z,3.28
2023-03-16T11:17:25.327Z,4.55
2023-03-16T11:19:57.877Z,3.30
2023-03-16T11:22:27.057Z,3.55
2023-03-16T11:25:03.881Z,3.80
2023-03-16T11:27:42.200Z,3.75
2023-03-16T11:30:35.420Z,3.17
2023-03-16T11:33:04.298Z,3.28
2023-03-16T11:36:02.357Z,3.65
2023-03-16T11:38:52.348Z,3.75
2023-03-16T11:41:42.470Z,4.65
2023-03-16T11:44:39.539Z,3.38
2023-03-16T11:47:26.383Z,3.30
2023-03-16T11:50:01.602Z,3.38
2023-03-16T11:52:37.227Z,3.53
2023-03-16T11:55:09.195Z,2.80
2023-03-16T11:58:02.859Z,3.60
2023-03-16T12:00:59.365Z,5.70
2023-03-16T12:03:29.984Z,6.07
2023-03-16T12:06:20.732Z,6.80
2023-03-16T12:09:14.749Z,3.33
2023-03-16T12:11:57.953Z,7.65
2023-03-16T12:14:32.272Z,4.03
2023-03-16T12:17:19.621Z,4.18
2023-03-16T12:19:52.157Z,6.38
2023-03-16T12:22:27.371Z,4.50
2023-03-16T12:24:54.535Z,3.60
2023-03-16T12:27:27.124Z,7.07
2023-03-16T12:30:04.050Z,7.03
2023-03-16T12:32:47.882Z,5.07
2023-03-16T12:35:37.632Z,4.03
2023-03-16T12:38:14.137Z,2.88
2023-03-16T12:40:44.728Z,3.30
2023-03-16T12:43:39.929Z,2.70
2023-03-16T12:46:14.312Z,3.60
2023-03-16T12:48:56.040Z,3.58
2023-03-16T12:51:33.974Z,3.38
2023-03-16T12:54:02.224Z,2.60
2023-03-16T12:56:30.793Z,2.47
2023-03-16T12:59:01.137Z,2.45
2023-03-16T13:01:39.277Z,2.38
2023-03-16T13:04:12.811Z,2.83
2023-03-16T13:06:45.574Z,2.45
2023-03-16T13:09:19.293Z,2.80
2023-03-16T13:11:53.347Z,3.13
2023-03-16T13:14:36.108Z,2.83
2023-03-16T13:17:06.626Z,2.38
2023-03-16T13:19:38.000Z,2.45
2023-03-16T13:22:26.061Z,2.40
2023-03-16T13:25:24.377Z,2.55
2023-03-16T13:27:58.888Z,2.63
2023-03-16T13:30:32.414Z,3.03
2023-03-16T13:33:33.891Z,3.10
2023-03-16T13:36:04.618Z,2.85
2023-03-16T13:38:32.554Z,2.55
2023-03-16T13:41:09.301Z,3.10
2023-03-16T13:43:39.530Z,2.55
2023-03-16T13:46:22.540Z,3.17
2023-03-16T13:48:49.605Z,2.60
2023-03-16T13:51:20.960Z,4.05
2023-03-16T13:53:49.416Z,5.03
2023-03-16T13:56:21.450Z,13.02
2023-03-16T13:58:52.121Z,15.43
2023-03-16T14:01:24.911Z,8.00
2023-03-16T14:03:52.614Z,6.07
2023-03-16T14:06:26.763Z,5.60
2023-03-16T14:08:58.665Z,5.30
2023-03-16T14:11:27.033Z,5.05
2023-03-16T14:13:56.888Z,3.42
2023-03-16T14:16:26.673Z,3.03
2023-03-16T14:19:32.312Z,3.00
2023-03-16T14:22:04.268Z,3.33
2023-03-16T14:24:35.605Z,2.80
2023-03-16T14:27:19.857Z,4.38
2023-03-16T14:29:53.580Z,3.28
2023-03-16T14:32:28.697Z,3.60
2023-03-16T14:35:20.425Z,3.13
2023-03-16T14:37:51.969Z,2.80
2023-03-16T14:40:32.409Z,3.50
2023-03-16T14:43:03.750Z,2.65
2023-03-16T14:45:34.271Z,2.33
2023-03-16T14:48:17.119Z,2.30
2023-03-16T14:50:44.558Z,3.00
2023-03-16T14:53:11.958Z,2.75
2023-03-16T14:55:39.047Z,3.15
2023-03-16T14:58:06.904Z,3.92
2023-03-16T15:00:42.735Z,2.85
2023-03-16T15:03:17.481Z,2.40
2023-03-16T15:05:48.608Z,3.53
2023-03-16T15:08:28.709Z,3.83
2023-03-16T15:11:01.007Z,2.88
2023-03-16T15:13:37.388Z,2.60
2023-03-16T15:16:06.013Z,4.25
2023-03-16T15:18:33.938Z,4.18
2023-03-16T15:21:03.023Z,4.55
2023-03-16T15:23:31.267Z,4.43
2023-03-16T15:26:02.990Z,5.78
2023-03-16T15:28:30.380Z,4.80
2023-03-16T15:30:59.360Z,20.42
2023-03-16T15:33:27.322Z,4.57
2023-03-16T15:35:57.233Z,7.17
2023-03-16T15:38:33.571Z,7.40
2023-03-16T15:41:01.101Z,13.07
2023-03-16T15:43:32.070Z,16.17
2023-03-16T15:46:00.020Z,11.80
2023-03-16T15:48:27.192Z,11.80
2023-03-16T15:51:00.183Z,14.93
2023-03-16T15:53:50.283Z,8.33
2023-03-16T15:56:23.784Z,10.67
2023-03-16T15:58:51.178Z,9.37
2023-03-16T16:01:24.275Z,11.10
2023-03-16T16:03:54.064Z,13.17
2023-03-16T16:06:21.917Z,14.60
2023-03-16T16:08:49.129Z,10.50
2023-03-16T16:11:18.156Z,9.40
2023-03-16T16:13:45.915Z,9.57
2023-03-16T16:16:18.910Z,8.47
2023-03-16T16:18:48.513Z,8.73
2023-03-16T16:24:03.144Z,12.63
2023-03-16T16:26:48.955Z,16.33
2023-03-16T16:29:24.185Z,24.20
2023-03-16T16:31:52.475Z,24.17
2023-03-16T16:34:24.561Z,54.15
2023-03-16T16:36:53.002Z,82.33
2023-03-16T16:39:20.615Z,130.05
2023-03-16T16:41:50.015Z,26.27
2023-03-16T16:44:23.698Z,49.70
2023-03-16T16:46:52.112Z,17.00
2023-03-16T16:49:30.738Z,15.55
2023-03-16T16:51:58.188Z,12.00
2023-03-16T16:54:31.166Z,9.07
2023-03-16T16:57:00.048Z,10.87
2023-03-16T17:02:00.881Z,11.70
2023-03-16T17:04:30.080Z,13.13
2023-03-16T17:07:00.905Z,13.80
2023-03-16T17:09:30.258Z,14.17
2023-03-16T17:14:29.197Z,25.70
2023-03-16T17:16:59.854Z,66.50
2023-03-16T17:19:28.768Z,52.33
2023-03-16T17:21:57.703Z,45.25
2023-03-16T17:24:25.519Z,48.47
2023-03-16T17:26:59.086Z,46.87
2023-03-16T17:29:33.368Z,60.57
2023-03-16T17:32:02.461Z,82.30
2023-03-16T17:34:33.013Z,139.00
2023-03-16T17:37:00.051Z,340.43
2023-03-16T17:39:33.868Z,150.03
2023-03-16T17:42:12.194Z,107.93
2023-03-16T17:44:42.768Z,95.18
2023-03-16T17:47:24.196Z,131.40
2023-03-16T17:49:52.165Z,114.80
2023-03-16T17:52:23.491Z,119.40
2023-03-16T17:54:52.622Z,123.37
2023-03-16T17:57:25.652Z,110.07
2023-03-16T17:59:53.677Z,115.30
2023-03-16T18:02:23.954Z,108.43
2023-03-16T18:04:51.563Z,113.23
2023-03-16T18:07:18.634Z,109.30
2023-03-16T18:09:45.824Z,104.17
2023-03-16T18:12:12.806Z,106.53
2023-03-16T18:14:41.321Z,109.50
2023-03-16T18:17:28.619Z,107.53
2023-03-16T18:19:56.044Z,106.83
2023-03-16T18:22:24.789Z,111.97
2023-03-16T18:27:21.507Z,126.88
2023-03-16T18:29:48.864Z,125.93
2023-03-16T18:32:25.641Z,91.80
2023-03-16T18:34:54.049Z,99.70
2023-03-16T18:37:23.607Z,75.17
2023-03-16T18:39:52.499Z,90.73
2023-03-16T18:42:28.076Z,93.97
2023-03-16T18:44:55.783Z,101.80
2023-03-16T18:47:24.610Z,107.00
2023-03-16T18:49:54.236Z,105.70
2023-03-16T18:52:24.409Z,97.27
2023-03-16T18:54:53.083Z,88.03
2023-03-16T18:57:23.277Z,71.03
2023-03-16T18:59:51.151Z,89.47
2023-03-16T19:02:18.077Z,95.50
2023-03-16T19:04:45.444Z,85.53
2023-03-16T19:07:25.874Z,81.70
2023-03-16T19:09:53.328Z,80.80
2023-03-16T19:12:21.828Z,82.80
2023-03-16T19:14:49.024Z,93.32
2023-03-16T19:17:16.503Z,87.10
2023-03-16T19:19:43.753Z,91.13
2023-03-16T19:22:19.171Z,85.60
2023-03-16T19:24:48.975Z,78.37
2023-03-16T19:27:29.942Z,76.07
2023-03-16T19:29:57.285Z,75.80
2023-03-16T19:32:24.200Z,73.37
2023-03-16T19:34:51.602Z,76.53
2023-03-16T19:37:19.902Z,71.70
2023-03-16T19:39:47.308Z,67.43
2023-03-16T19:42:24.970Z,68.67
2023-03-16T19:44:52.272Z,67.05
2023-03-16T19:47:27.935Z,71.67
2023-03-16T19:49:55.627Z,69.60
2023-03-16T19:52:22.568Z,66.57
2023-03-16T19:54:49.851Z,73.20
2023-03-16T19:57:19.463Z,69.53
2023-03-16T19:59:50.652Z,72.50
2023-03-16T20:02:31.375Z,61.77
2023-03-16T20:04:58.615Z,55.37
2023-03-16T20:07:26.039Z,60.53
2023-03-16T20:09:53.286Z,56.17
2023-03-16T20:12:27.388Z,52.20
2023-03-16T20:14:56.674Z,53.53
2023-03-16T20:19:53.131Z,46.88
2023-03-16T20:22:27.450Z,48.27
2023-03-16T20:24:56.015Z,53.30
2023-03-16T20:27:24.327Z,54.00
2023-03-16T20:29:51.887Z,51.95
2023-03-16T20:32:22.053Z,55.17
2023-03-16T20:34:51.241Z,53.03
2023-03-16T20:37:26.527Z,59.78
2023-03-16T20:39:55.707Z,53.87
2023-03-16T20:42:34.501Z,45.05
2023-03-16T20:45:01.949Z,44.30
2023-03-16T20:47:28.999Z,47.13
2023-03-16T20:49:59.564Z,47.67
2023-03-16T20:52:30.890Z,47.77
2023-03-16T20:54:58.819Z,50.13
2023-03-16T20:57:27.273Z,41.57
2023-03-16T20:59:55.616Z,39.42
2023-03-16T21:02:35.240Z,34.55
2023-03-16T21:05:05.301Z,57.53
2023-03-16T21:07:33.280Z,45.70
2023-03-16T21:10:00.614Z,45.65
2023-03-16T21:12:33.859Z,40.63
2023-03-16T21:15:02.754Z,41.90
2023-03-16T21:17:37.306Z,45.95
2023-03-16T21:20:16.048Z,42.03
2023-03-16T21:22:43.320Z,45.33
2023-03-16T21:25:51.055Z,46.13
2023-03-16T21:28:19.997Z,39.63
2023-03-16T21:30:50.385Z,42.07
2023-03-16T21:33:31.392Z,44.00
2023-03-16T21:36:00.941Z,43.30
2023-03-16T21:38:31.734Z,41.47
2023-03-16T21:40:59.944Z,40.23
2023-03-16T21:43:27.773Z,41.83
2023-03-16T21:45:56.815Z,33.28
2023-03-16T21:48:37.767Z,32.42
2023-03-16T21:51:16.239Z,33.53
2023-03-16T21:53:43.302Z,34.67
2023-03-16T21:56:15.480Z,33.87
2023-03-16T21:58:43.553Z,35.67
2023-03-16T22:01:24.953Z,35.47
2023-03-16T22:03:55.068Z,37.90
2023-03-16T22:06:23.394Z,37.30
2023-03-16T22:08:51.400Z,33.88
2023-03-16T22:11:21.509Z,35.00
2023-03-16T22:13:52.265Z,33.33
2023-03-16T22:16:22.031Z,27.57
2023-03-16T22:18:56.409Z,29.57
2023-03-16T22:21:29.189Z,27.50
2023-03-16T22:23:57.750Z,26.93
2023-03-16T22:26:26.325Z,27.17
2023-03-16T22:28:53.390Z,24.88
2023-03-16T22:31:29.123Z,23.30
2023-03-16T22:33:56.213Z,24.13
2023-03-16T22:36:23.553Z,25.93
2023-03-16T22:38:59.586Z,22.83
2023-03-16T22:41:28.515Z,24.97
2023-03-16T22:43:56.170Z,25.08
2023-03-16T22:46:26.485Z,24.63
2023-03-16T22:48:54.862Z,21.57
2023-03-16T22:51:33.101Z,19.88
2023-03-16T22:54:04.880Z,22.08
2023-03-16T22:56:34.770Z,24.50
2023-03-16T22:59:06.093Z,22.13
2023-03-16T23:01:37.692Z,22.20
2023-03-16T23:04:13.873Z,23.47
2023-03-16T23:06:42.014Z,21.80
2023-03-16T23:09:12.918Z,22.67
2023-03-16T23:11:43.463Z,21.73
2023-03-16T23:14:19.991Z,22.13
2023-03-16T23:16:48.965Z,17.80
2023-03-16T23:19:29.841Z,17.33
2023-03-16T23:22:00.995Z,17.43
2023-03-16T23:24:28.221Z,17.87
2023-03-16T23:26:56.188Z,21.20
2023-03-16T23:29:24.295Z,19.27
2023-03-16T23:31:51.534Z,20.52
2023-03-16T23:34:20.767Z,21.23
2023-03-16T23:36:48.652Z,18.57
2023-03-16T23:39:15.998Z,17.67
2023-03-16T23:41:47.633Z,14.23
2023-03-16T23:44:23.955Z,15.43
2023-03-16T23:46:51.594Z,14.60
2023-03-16T23:49:26.616Z,16.07
2023-03-16T23:51:56.801Z,17.17
2023-03-16T23:54:26.357Z,16.43
2023-03-16T23:56:53.917Z,16.97
2023-03-16T23:59:21.537Z,18.40
